createdAt,value
2022-08-29T00:03:59.977Z,11.00
2022-08-29T00:08:03.669Z,11.37
2022-08-29T00:12:06.504Z,12.10
2022-08-29T00:16:08.995Z,11.47
2022-08-29T00:20:14.727Z,11.70
2022-08-29T00:24:17.215Z,12.53
2022-08-29T00:28:19.853Z,13.23
2022-08-29T00:32:21.911Z,12.20
2022-08-29T00:36:25.756Z,10.87
2022-08-29T00:40:41.285Z,12.63
2022-08-29T00:44:44.577Z,11.17
2022-08-29T00:48:54.651Z,14.87
2022-08-29T00:52:58.161Z,11.03
2022-08-29T00:57:00.856Z,11.07
2022-08-29T01:01:04.269Z,11.60
2022-08-29T01:05:08.531Z,11.23
2022-08-29T01:09:11.210Z,11.37
2022-08-29T01:13:13.933Z,11.00
2022-08-29T01:17:38.022Z,11.80
2022-08-29T01:22:18.455Z,11.73
2022-08-29T01:26:23.090Z,12.10
2022-08-29T01:30:26.615Z,13.33
2022-08-29T01:34:29.751Z,14.13
2022-08-29T01:38:32.617Z,13.00
2022-08-29T01:42:36.670Z,15.73
2022-08-29T01:46:40.557Z,14.33
2022-08-29T01:50:42.646Z,13.87
2022-08-29T01:54:45.953Z,14.67
2022-08-29T01:58:49.724Z,17.20
2022-08-29T02:02:52.541Z,14.80
2022-08-29T02:06:56.280Z,13.10
2022-08-29T02:10:58.705Z,14.37
2022-08-29T02:15:00.794Z,14.10
2022-08-29T02:19:03.463Z,14.90
2022-08-29T02:23:10.639Z,13.37
2022-08-29T02:27:24.430Z,15.73
2022-08-29T02:31:26.464Z,14.70
2022-08-29T02:35:28.751Z,14.00
2022-08-29T02:39:32.920Z,16.87
2022-08-29T02:43:35.360Z,14.00
2022-08-29T02:47:37.724Z,14.23
2022-08-29T02:51:39.722Z,13.10
2022-08-29T02:55:42.412Z,14.60
2022-08-29T02:59:44.773Z,16.87
2022-08-29T03:03:47.027Z,13.57
2022-08-29T03:07:51.081Z,14.30
2022-08-29T03:11:56.298Z,15.03
2022-08-29T03:15:58.815Z,18.43
2022-08-29T03:20:01.775Z,15.53
2022-08-29T03:24:04.605Z,15.80
2022-08-29T03:28:07.725Z,14.33
2022-08-29T03:32:09.927Z,14.63
2022-08-29T03:36:13.988Z,14.67
2022-08-29T03:40:19.188Z,14.53
2022-08-29T03:44:22.731Z,14.53
2022-08-29T03:48:25.143Z,17.80
2022-08-29T03:52:27.873Z,14.87
2022-08-29T03:56:30.652Z,17.30
2022-08-29T04:00:33.122Z,16.53
2022-08-29T04:04:54.029Z,18.63
2022-08-29T04:08:57.614Z,14.70
2022-08-29T04:13:00.980Z,14.87
2022-08-29T04:17:04.448Z,14.70
2022-08-29T04:21:08.318Z,13.77
2022-08-29T04:25:13.761Z,14.73
2022-08-29T04:29:17.323Z,16.33
2022-08-29T04:33:22.693Z,13.50
2022-08-29T04:37:25.541Z,13.20
2022-08-29T04:41:27.752Z,14.00
2022-08-29T04:45:30.422Z,14.20
2022-08-29T04:49:32.738Z,13.47
2022-08-29T04:53:35.087Z,14.63
2022-08-29T04:57:38.695Z,16.60
2022-08-29T05:01:42.291Z,14.63
2022-08-29T05:05:44.816Z,14.87
2022-08-29T05:09:49.935Z,14.33
2022-08-29T05:13:54.030Z,14.63
2022-08-29T05:17:56.228Z,17.37
2022-08-29T05:21:59.191Z,13.80
2022-08-29T05:26:05.457Z,16.80
2022-08-29T05:30:08.361Z,15.23
2022-08-29T05:34:33.929Z,19.47
2022-08-29T05:38:36.410Z,16.10
2022-08-29T05:42:38.831Z,15.40
2022-08-29T05:46:41.100Z,15.77
2022-08-29T05:50:44.534Z,16.37
2022-08-29T05:54:47.147Z,17.03
2022-08-29T05:58:49.629Z,21.00
2022-08-29T06:02:51.796Z,19.97
2022-08-29T06:06:54.047Z,18.43
2022-08-29T06:10:56.252Z,18.10
2022-08-29T06:14:58.343Z,18.63
2022-08-29T06:19:00.977Z,17.70
2022-08-29T06:23:03.202Z,18.07
2022-08-29T06:27:05.606Z,19.53
2022-08-29T06:31:15.371Z,15.97
2022-08-29T06:35:17.533Z,14.97
2022-08-29T06:39:21.379Z,14.67
2022-08-29T06:43:23.784Z,11.67
2022-08-29T06:47:26.392Z,12.00
2022-08-29T06:51:33.033Z,14.03
2022-08-29T06:55:36.542Z,11.53
2022-08-29T06:59:38.521Z,14.13
2022-08-29T07:03:41.389Z,12.63
2022-08-29T07:07:43.396Z,11.83
2022-08-29T07:11:46.110Z,12.20
2022-08-29T07:15:50.626Z,12.17
2022-08-29T07:19:53.827Z,10.23
2022-08-29T07:23:58.181Z,11.63
2022-08-29T07:28:00.785Z,10.27
2022-08-29T07:32:03.286Z,8.37
2022-08-29T07:36:06.106Z,9.73
2022-08-29T07:40:11.417Z,9.53
2022-08-29T07:44:13.857Z,8.80
2022-08-29T07:48:18.858Z,8.50
2022-08-29T07:52:23.269Z,9.10
2022-08-29T07:56:29.250Z,7.60
2022-08-29T08:00:31.630Z,9.93
2022-08-29T08:04:33.998Z,8.70
2022-08-29T08:08:37.178Z,6.23
2022-08-29T08:12:39.499Z,7.20
2022-08-29T08:16:44.243Z,6.87
2022-08-29T08:20:48.701Z,6.60
2022-08-29T08:24:51.060Z,6.37
2022-08-29T08:28:53.537Z,6.80
2022-08-29T08:32:59.364Z,5.47
2022-08-29T08:37:01.651Z,6.57
2022-08-29T08:41:27.600Z,7.07
2022-08-29T08:45:39.236Z,6.10
2022-08-29T08:49:50.370Z,6.80
2022-08-29T08:53:56.642Z,5.90
2022-08-29T08:58:05.803Z,6.47
2022-08-29T09:02:30.060Z,5.83
2022-08-29T09:06:32.468Z,6.37
2022-08-29T09:11:03.235Z,6.80
2022-08-29T09:15:13.426Z,6.13
2022-08-29T09:19:17.739Z,7.23
2022-08-29T09:23:22.275Z,6.87
2022-08-29T09:27:28.369Z,6.83
2022-08-29T09:31:35.297Z,7.13
2022-08-29T09:35:41.616Z,5.47
2022-08-29T09:39:54.997Z,6.80
2022-08-29T09:43:59.671Z,6.17
2022-08-29T09:48:17.609Z,6.27
2022-08-29T09:52:25.995Z,6.47
2022-08-29T09:56:28.626Z,5.87
2022-08-29T10:00:38.383Z,5.97
2022-08-29T10:04:44.578Z,6.60
2022-08-29T10:09:26.945Z,5.37
2022-08-29T10:14:14.896Z,5.20
2022-08-29T10:18:27.675Z,5.63
2022-08-29T10:22:40.494Z,5.97
2022-08-29T10:26:48.792Z,5.87
2022-08-29T10:31:08.939Z,5.70
2022-08-29T10:35:20.111Z,4.87
2022-08-29T10:39:40.624Z,5.07
2022-08-29T10:48:32.865Z,5.63
2022-08-29T10:52:54.141Z,4.53
2022-08-29T10:56:59.795Z,4.40
2022-08-29T11:01:22.477Z,5.00
2022-08-29T11:05:35.750Z,4.70
2022-08-29T11:09:42.990Z,4.47
2022-08-29T11:13:52.730Z,4.90
2022-08-29T11:18:33.861Z,4.65
2022-08-29T11:22:38.352Z,4.25
2022-08-29T11:26:43.282Z,5.25
2022-08-29T11:31:16.619Z,5.00
2022-08-29T11:35:26.392Z,5.25
2022-08-29T11:39:34.250Z,4.85
2022-08-29T11:43:40.780Z,4.70
2022-08-29T11:47:46.193Z,4.72
2022-08-29T11:51:53.531Z,4.28
2022-08-29T11:56:14.242Z,4.40
2022-08-29T12:00:33.253Z,4.35
2022-08-29T12:05:02.583Z,4.43
2022-08-29T12:09:14.553Z,4.55
2022-08-29T12:13:49.044Z,3.90
2022-08-29T12:18:02.090Z,4.75
2022-08-29T12:22:05.614Z,3.67
2022-08-29T12:26:48.258Z,4.38
2022-08-29T12:31:04.027Z,4.80
2022-08-29T12:35:16.694Z,3.92
2022-08-29T12:39:44.152Z,4.93
2022-08-29T12:43:47.143Z,4.50
2022-08-29T12:47:57.915Z,3.50
2022-08-29T12:52:05.461Z,3.97
2022-08-29T12:56:23.875Z,4.15
2022-08-29T13:00:30.138Z,4.38
2022-08-29T13:04:36.566Z,5.07
2022-08-29T13:08:38.665Z,4.45
2022-08-29T13:12:41.120Z,4.47
2022-08-29T13:16:43.285Z,4.82
2022-08-29T13:21:11.180Z,4.90
2022-08-29T13:25:17.633Z,5.07
2022-08-29T13:29:37.666Z,5.13
2022-08-29T13:34:01.931Z,5.00
2022-08-29T13:38:27.094Z,4.80
2022-08-29T13:42:31.736Z,4.13
2022-08-29T13:46:33.746Z,4.35
2022-08-29T13:50:35.908Z,4.28
2022-08-29T13:54:42.446Z,4.40
2022-08-29T13:58:44.614Z,4.43
2022-08-29T14:03:00.410Z,4.72
2022-08-29T14:07:17.063Z,4.22
2022-08-29T14:11:21.358Z,3.97
2022-08-29T14:15:23.886Z,4.22
2022-08-29T14:19:30.214Z,3.53
2022-08-29T14:23:32.522Z,4.13
2022-08-29T14:27:34.584Z,3.95
2022-08-29T14:31:37.946Z,4.30
2022-08-29T14:35:42.513Z,4.47
2022-08-29T14:39:45.639Z,3.60
2022-08-29T14:43:53.018Z,4.93
2022-08-29T14:47:55.973Z,3.83
2022-08-29T14:51:58.079Z,4.10
2022-08-29T14:56:01.235Z,4.45
2022-08-29T15:00:13.745Z,3.50
2022-08-29T15:04:16.183Z,3.70
2022-08-29T15:08:19.702Z,3.43
2022-08-29T15:12:22.690Z,3.20
2022-08-29T15:16:24.763Z,3.40
2022-08-29T15:20:37.732Z,3.77
2022-08-29T15:24:41.102Z,4.20
2022-08-29T15:28:43.514Z,3.90
2022-08-29T15:32:45.956Z,3.60
2022-08-29T15:36:52.013Z,3.10
2022-08-29T15:40:54.400Z,3.10
2022-08-29T15:45:04.366Z,3.87
2022-08-29T15:49:10.033Z,3.60
2022-08-29T15:53:12.649Z,3.43
2022-08-29T15:57:14.963Z,3.37
2022-08-29T16:01:17.575Z,3.90
2022-08-29T16:05:20.339Z,4.20
2022-08-29T16:09:23.678Z,4.23
2022-08-29T16:13:25.897Z,4.00
2022-08-29T16:17:31.132Z,3.83
2022-08-29T16:21:35.929Z,3.60
2022-08-29T16:25:39.576Z,3.33
2022-08-29T16:29:41.872Z,4.00
2022-08-29T16:33:44.740Z,3.63
2022-08-29T16:37:48.094Z,4.33
2022-08-29T16:42:06.205Z,3.80
2022-08-29T16:46:11.930Z,3.63
2022-08-29T16:50:14.098Z,3.90
2022-08-29T16:54:16.625Z,3.77
2022-08-29T16:58:37.075Z,3.50
2022-08-29T17:02:39.556Z,3.00
2022-08-29T17:06:42.259Z,3.60
2022-08-29T17:10:44.439Z,3.47
2022-08-29T17:14:46.497Z,3.37
2022-08-29T17:18:51.475Z,3.53
2022-08-29T17:22:54.515Z,3.53
2022-08-29T17:26:57.638Z,4.37
2022-08-29T17:31:00.102Z,4.10
2022-08-29T17:35:02.326Z,3.70
2022-08-29T17:39:07.529Z,3.73
2022-08-29T17:43:10.611Z,3.43
2022-08-29T17:47:12.698Z,4.67
2022-08-29T17:51:16.119Z,3.87
2022-08-29T17:55:19.999Z,4.20
2022-08-29T17:59:24.139Z,3.27
2022-08-29T18:03:26.465Z,3.93
2022-08-29T18:07:31.518Z,4.20
2022-08-29T18:11:38.966Z,4.57
2022-08-29T18:15:40.954Z,4.00
2022-08-29T18:19:43.103Z,3.83
2022-08-29T18:23:45.305Z,4.40
2022-08-29T18:27:47.539Z,5.13
2022-08-29T18:31:49.658Z,4.80
2022-08-29T18:35:52.265Z,4.50
2022-08-29T18:39:54.519Z,4.57
2022-08-29T18:43:57.302Z,4.90
2022-08-29T18:48:01.065Z,4.43
2022-08-29T18:52:03.585Z,4.70
2022-08-29T18:56:06.503Z,4.90
2022-08-29T19:00:10.466Z,5.23
2022-08-29T19:04:12.881Z,5.00
2022-08-29T19:08:16.766Z,5.33
2022-08-29T19:12:19.824Z,5.30
2022-08-29T19:16:25.569Z,5.10
2022-08-29T19:20:46.690Z,5.07
2022-08-29T19:24:49.467Z,5.27
2022-08-29T19:28:54.136Z,4.67
2022-08-29T19:32:58.923Z,4.60
2022-08-29T19:37:00.954Z,4.97
2022-08-29T19:41:06.042Z,6.13
2022-08-29T19:45:10.702Z,5.67
2022-08-29T19:49:13.085Z,6.07
2022-08-29T19:53:25.960Z,6.10
2022-08-29T19:57:31.361Z,5.00
2022-08-29T20:01:33.654Z,5.10
2022-08-29T20:05:35.668Z,5.20
2022-08-29T20:09:37.971Z,5.20
2022-08-29T20:13:40.547Z,4.77
2022-08-29T20:17:47.286Z,5.50
2022-08-29T20:21:50.681Z,5.70
2022-08-29T20:25:53.052Z,5.40
2022-08-29T20:29:55.319Z,4.90
2022-08-29T20:33:57.759Z,5.67
2022-08-29T20:38:00.230Z,5.43
2022-08-29T20:42:02.680Z,5.00
2022-08-29T20:46:10.201Z,5.63
2022-08-29T20:50:12.584Z,5.73
2022-08-29T20:54:17.591Z,4.97
2022-08-29T20:58:19.976Z,5.57
2022-08-29T21:02:22.385Z,4.67
2022-08-29T21:06:24.617Z,5.40
2022-08-29T21:10:27.527Z,4.80
2022-08-29T21:14:29.571Z,5.10
2022-08-29T21:18:31.734Z,3.70
2022-08-29T21:22:33.886Z,4.40
2022-08-29T21:26:37.007Z,4.80
2022-08-29T21:30:45.398Z,4.93
2022-08-29T21:34:49.622Z,4.27
2022-08-29T21:38:55.145Z,4.03
2022-08-29T21:42:57.282Z,4.90
2022-08-29T21:47:00.591Z,4.27
2022-08-29T21:51:03.503Z,5.97
2022-08-29T21:55:06.505Z,6.57
2022-08-29T21:59:08.778Z,5.57
2022-08-29T22:03:13.073Z,4.90
2022-08-29T22:07:16.257Z,4.67
2022-08-29T22:11:23.955Z,4.50
2022-08-29T22:15:46.715Z,4.40
2022-08-29T22:19:48.798Z,4.37
2022-08-29T22:23:51.087Z,4.50
2022-08-29T22:27:53.273Z,4.20
2022-08-29T22:31:56.305Z,4.93
2022-08-29T22:35:59.473Z,5.30
2022-08-29T22:40:01.743Z,5.53
2022-08-29T22:48:26.983Z,4.33
2022-08-29T22:52:29.106Z,4.43
2022-08-29T22:56:37.112Z,4.43
2022-08-29T23:00:39.316Z,5.47
2022-08-29T23:04:41.674Z,6.10
2022-08-29T23:08:43.815Z,6.00
2022-08-29T23:12:46.130Z,5.40
2022-08-29T23:16:49.327Z,5.23
2022-08-29T23:20:51.610Z,6.67
2022-08-29T23:24:58.278Z,5.40
2022-08-29T23:29:01.549Z,5.53
2022-08-29T23:33:03.743Z,5.53
2022-08-29T23:37:06.059Z,5.60
2022-08-29T23:41:08.230Z,5.47
2022-08-29T23:45:11.083Z,5.80
2022-08-29T23:49:13.422Z,4.97
2022-08-29T23:53:15.840Z,4.53
2022-08-29T23:57:18.194Z,5.00
